Time;durP1;ratioP1;P1;durP2;ratioP2;P2;SDS_P1;SDS_P2;PMS_P1;PMS_P2;Temp;Humidity;BMP_temperature;BMP_pressure;BME280_temperature;BME280_humidity;BME280_pressure;Samples;Min_cycle;Max_cycle;Signal;HPM_P1;HPM_P2
2022/10/31 00:00:15;;;;;;;;;;;13.40;99.90;;;;;;5093918;28;19908;-77
2022/10/31 00:02:41;;;;;;;;;;;13.40;99.90;;;;;;5093029;28;19917;-76
2022/10/31 00:05:06;;;;;;;;;;;13.30;99.90;;;;;;5092483;28;19965;-76
2022/10/31 00:07:32;;;;;;;;;;;13.30;99.90;;;;;;5093296;28;20007;-76
2022/10/31 00:09:58;;;;;;;;;;;13.30;99.90;;;;;;5093528;28;19977;-76
2022/10/31 00:12:23;;;;;;;;;;;13.30;99.90;;;;;;5091949;28;19951;-76
2022/10/31 00:14:49;;;;;;;;;;;13.40;99.90;;;;;;5092305;28;19908;-76
2022/10/31 00:17:15;;;;;;;;;;;13.40;99.90;;;;;;5093544;28;19908;-75
2022/10/31 00:19:40;;;;;;;;;;;13.40;99.90;;;;;;5093270;28;20693;-76
2022/10/31 00:22:06;;;;;;;;;;;13.40;99.90;;;;;;5092751;28;19908;-76
2022/10/31 00:24:31;;;;;;;;;;;13.40;99.90;;;;;;5092666;28;19919;-76
2022/10/31 00:26:57;;;;;;;;;;;13.40;99.90;;;;;;5093097;28;20369;-76
2022/10/31 00:29:22;;;;;;;;;;;13.30;99.90;;;;;;5093024;28;19908;-76
2022/10/31 00:31:48;;;;;;;;;;;13.20;99.90;;;;;;5092693;28;20303;-76
2022/10/31 00:34:13;;;;;;;;;;;13.20;99.90;;;;;;5093112;28;19908;-76
2022/10/31 00:36:39;;;;;;;;;;;13.20;99.90;;;;;;5092573;28;19939;-75
2022/10/31 00:39:05;;;;;;;;;;;13.20;99.90;;;;;;5093759;28;19915;-77
2022/10/31 00:41:30;;;;;;;;;;;13.10;99.90;;;;;;5092731;28;19996;-77
2022/10/31 00:43:56;;;;;;;;;;;13.10;99.90;;;;;;5091664;28;19958;-76
2022/10/31 00:46:21;;;;;;;;;;;13.10;99.90;;;;;;5092547;28;20018;-76
2022/10/31 00:48:47;;;;;;;;;;;13.10;99.90;;;;;;5091150;28;19919;-77
2022/10/31 00:51:12;;;;;;;;;;;13.10;99.90;;;;;;5093280;28;19915;-77
2022/10/31 00:53:38;;;;;;;;;;;13.10;99.90;;;;;;5092251;28;20421;-77
2022/10/31 00:56:04;;;;;;;;;;;13.20;99.90;;;;;;5092615;28;19916;-77
2022/10/31 00:58:29;;;;;;;;;;;13.20;99.90;;;;;;5092926;28;19914;-78
2022/10/31 01:00:55;;;;;;;;;;;13.20;99.90;;;;;;5092854;28;19908;-77
2022/10/31 01:03:21;;;;;;;;;;;13.10;99.90;;;;;;5092974;28;19916;-77
2022/10/31 01:05:55;;;;;;;;;;;13.20;99.90;;;;;;5092211;28;19986;-77
2022/10/31 01:08:20;;;;;;;;;;;13.20;99.90;;;;;;5091795;28;19965;-77
2022/10/31 01:10:46;;;;;;;;;;;13.30;99.90;;;;;;5092165;28;20483;-77
2022/10/31 01:13:11;;;;;;;;;;;13.30;99.90;;;;;;5092638;28;19912;-78
2022/10/31 01:15:37;;;;;;;;;;;13.40;99.90;;;;;;5092414;28;19908;-77
2022/10/31 01:18:03;;;;;;;;;;;13.40;99.90;;;;;;5092665;28;19915;-77
2022/10/31 01:20:28;;;;;;;;;;;13.40;99.90;;;;;;5092061;28;19961;-78
2022/10/31 01:22:54;;;;;;;;;;;13.50;99.90;;;;;;5092841;28;20392;-77
2022/10/31 01:25:19;;;;;;;;;;;13.50;99.90;;;;;;5092698;28;19916;-77
2022/10/31 01:27:45;;;;;;;;;;;13.50;99.90;;;;;;5091757;28;19954;-77
2022/10/31 01:30:10;;;;;;;;;;;13.50;99.90;;;;;;5092623;28;19909;-77
2022/10/31 01:32:36;;;;;;;;;;;13.60;99.90;;;;;;5092134;28;20349;-77
2022/10/31 01:35:02;;;;;;;;;;;13.70;99.90;;;;;;5091195;28;19919;-77
2022/10/31 01:37:27;;;;;;;;;;;13.70;99.90;;;;;;5092314;28;19916;-77
2022/10/31 01:39:53;;;;;;;;;;;13.80;99.90;;;;;;5090858;28;20349;-77
2022/10/31 01:42:19;;;;;;;;;;;13.80;99.90;;;;;;5092537;28;19946;-77
2022/10/31 01:44:45;;;;;;;;;;;13.80;99.90;;;;;;5093810;28;20399;-76
2022/10/31 01:47:15;;;;;;;;;;;13.70;99.90;;;;;;5096318;28;19969;-77
2022/10/31 01:50:01;;;;;;;;;;;13.80;99.90;;;;;;5093823;28;19908;-76
2022/10/31 01:52:27;;;;;;;;;;;13.80;99.90;;;;;;5095807;28;20006;-76
2022/10/31 01:54:57;;;;;;;;;;;13.80;99.90;;;;;;5095578;28;20001;-76
2022/10/31 01:57:23;;;;;;;;;;;13.80;99.90;;;;;;5096209;28;19908;-76
2022/10/31 01:59:50;;;;;;;;;;;13.80;99.90;;;;;;5094510;28;19949;-76
2022/10/31 02:02:18;;;;;;;;;;;13.70;99.90;;;;;;5096278;28;19908;-76
2022/10/31 02:04:44;;;;;;;;;;;13.70;99.90;;;;;;5095828;28;19951;-76
2022/10/31 02:07:22;;;;;;;;;;;13.70;99.90;;;;;;5096114;28;19912;-77
2022/10/31 02:09:48;;;;;;;;;;;13.70;99.90;;;;;;5095482;28;19908;-77
2022/10/31 02:12:14;;;;;;;;;;;13.70;99.90;;;;;;5096005;28;19962;-76
2022/10/31 02:14:40;;;;;;;;;;;13.70;99.90;;;;;;5095381;28;20361;-77
2022/10/31 02:17:06;;;;;;;;;;;13.70;99.90;;;;;;5095724;28;19908;-77
2022/10/31 02:19:40;;;;;;;;;;;13.70;99.90;;;;;;5095261;28;19912;-76
2022/10/31 02:22:16;;;;;;;;;;;13.60;99.90;;;;;;5095894;28;19915;-77
2022/10/31 02:24:51;;;;;;;;;;;13.60;99.90;;;;;;5095320;28;19958;-75
2022/10/31 02:27:23;;;;;;;;;;;13.70;99.90;;;;;;5095820;28;20424;-76
2022/10/31 02:29:48;;;;;;;;;;;13.70;99.90;;;;;;5094791;28;19915;-75
2022/10/31 02:32:21;;;;;;;;;;;13.70;99.90;;;;;;5095413;28;20314;-76
2022/10/31 02:34:58;;;;;;;;;;;13.70;99.90;;;;;;5094969;28;19959;-76
2022/10/31 02:37:39;;;;;;;;;;;13.70;99.90;;;;;;5095518;28;20383;-77
2022/10/31 02:40:15;;;;;;;;;;;13.70;99.90;;;;;;5095430;28;20371;-76
2022/10/31 02:42:41;;;;;;;;;;;13.60;99.90;;;;;;5094669;28;19912;-77
2022/10/31 02:45:21;;;;;;;;;;;13.70;99.90;;;;;;5094889;28;19958;-76
2022/10/31 02:47:48;;;;;;;;;;;13.70;99.90;;;;;;5094726;28;19916;-77
2022/10/31 02:50:17;;;;;;;;;;;13.70;99.90;;;;;;5095064;28;19919;-77
2022/10/31 02:52:43;;;;;;;;;;;13.70;99.90;;;;;;5093244;28;20336;-77
2022/10/31 02:55:28;;;;;;;;;;;13.70;99.90;;;;;;5094873;28;19943;-77
2022/10/31 02:58:14;;;;;;;;;;;13.70;99.90;;;;;;5093896;28;19908;-77
2022/10/31 03:00:47;;;;;;;;;;;13.60;99.90;;;;;;5093977;28;20275;-77
2022/10/31 03:03:22;;;;;;;;;;;13.60;99.90;;;;;;5095133;28;20057;-77
2022/10/31 03:06:02;;;;;;;;;;;13.60;99.90;;;;;;5094366;28;19913;-77
2022/10/31 03:08:28;;;;;;;;;;;13.60;99.90;;;;;;5095230;28;20010;-77
2022/10/31 03:10:58;;;;;;;;;;;13.60;99.90;;;;;;5094168;28;19997;-77
2022/10/31 03:13:23;;;;;;;;;;;13.60;99.90;;;;;;5094558;28;19908;-77
2022/10/31 03:15:50;;;;;;;;;;;13.70;99.90;;;;;;5094472;28;19908;-77
2022/10/31 03:18:20;;;;;;;;;;;13.70;99.90;;;;;;5094706;28;19908;-77
2022/10/31 03:20:47;;;;;;;;;;;13.60;99.90;;;;;;5093980;28;20267;-77
2022/10/31 03:23:17;;;;;;;;;;;13.70;99.90;;;;;;5093550;28;19930;-77
2022/10/31 03:25:43;;;;;;;;;;;13.60;99.90;;;;;;5094088;28;20003;-77
2022/10/31 03:28:11;;;;;;;;;;;13.60;99.90;;;;;;5094617;28;19912;-76
2022/10/31 03:30:38;;;;;;;;;;;13.60;99.90;;;;;;5093891;28;20037;-78
2022/10/31 03:33:06;;;;;;;;;;;13.50;99.90;;;;;;5094448;28;19915;-77
2022/10/31 03:35:32;;;;;;;;;;;13.50;99.90;;;;;;5094431;28;20312;-77
2022/10/31 03:37:59;;;;;;;;;;;13.50;99.90;;;;;;5093455;28;19909;-77
2022/10/31 03:40:26;;;;;;;;;;;13.50;99.90;;;;;;5093829;28;19946;-76
2022/10/31 03:42:54;;;;;;;;;;;13.50;99.90;;;;;;5093733;28;19922;-77
2022/10/31 03:45:28;;;;;;;;;;;13.50;99.90;;;;;;5094041;28;19920;-78
2022/10/31 03:47:54;;;;;;;;;;;13.50;99.90;;;;;;5092067;28;19950;-76
2022/10/31 03:50:19;;;;;;;;;;;13.50;99.90;;;;;;5093427;28;19908;-76
2022/10/31 03:52:52;;;;;;;;;;;13.50;99.90;;;;;;5093654;28;19908;-76
2022/10/31 03:55:19;;;;;;;;;;;13.50;99.90;;;;;;5093723;28;19908;-76
2022/10/31 03:57:47;;;;;;;;;;;13.60;99.90;;;;;;5093457;28;19953;-76
2022/10/31 04:00:13;;;;;;;;;;;13.60;99.90;;;;;;5093604;28;19918;-75
2022/10/31 04:02:41;;;;;;;;;;;13.60;99.90;;;;;;5093076;28;19945;-75
2022/10/31 04:05:07;;;;;;;;;;;13.60;99.90;;;;;;5093647;28;19913;-76
2022/10/31 04:07:43;;;;;;;;;;;13.60;99.90;;;;;;5093091;28;19912;-76
2022/10/31 04:10:11;;;;;;;;;;;13.70;99.90;;;;;;5093896;28;20372;-75
2022/10/31 04:12:38;;;;;;;;;;;13.80;99.90;;;;;;5093518;28;19908;-76
2022/10/31 04:15:04;;;;;;;;;;;13.80;99.90;;;;;;5093235;28;19944;-75
2022/10/31 04:17:32;;;;;;;;;;;13.80;99.90;;;;;;5093677;28;19961;-76
2022/10/31 04:20:01;;;;;;;;;;;13.80;99.90;;;;;;5093022;28;19912;-75
2022/10/31 04:22:26;;;;;;;;;;;13.70;99.90;;;;;;5093291;28;19999;-76
2022/10/31 04:24:52;;;;;;;;;;;13.60;99.90;;;;;;5092953;28;19970;-76
2022/10/31 04:27:17;;;;;;;;;;;13.50;99.90;;;;;;5093496;28;19912;-75
2022/10/31 04:29:43;;;;;;;;;;;13.50;99.90;;;;;;5093026;28;20360;-76
2022/10/31 04:32:09;;;;;;;;;;;13.50;99.90;;;;;;5093247;28;19909;-75
2022/10/31 04:34:34;;;;;;;;;;;13.50;99.90;;;;;;5093639;28;19943;-76
2022/10/31 04:37:00;;;;;;;;;;;13.50;99.90;;;;;;5093645;28;19904;-76
2022/10/31 04:39:25;;;;;;;;;;;13.50;99.90;;;;;;5093271;28;20292;-76
2022/10/31 04:41:51;;;;;;;;;;;13.60;99.90;;;;;;5092419;28;19908;-78
2022/10/31 04:44:16;;;;;;;;;;;13.60;99.90;;;;;;5093584;28;19952;-75
2022/10/31 04:46:42;;;;;;;;;;;13.70;99.90;;;;;;5093021;28;19924;-76
2022/10/31 04:49:07;;;;;;;;;;;13.80;99.90;;;;;;5092893;28;20361;-76
2022/10/31 04:51:33;;;;;;;;;;;13.90;99.90;;;;;;5092830;28;20061;-76
2022/10/31 04:53:58;;;;;;;;;;;13.90;99.90;;;;;;5091330;28;19915;-76
2022/10/31 04:56:24;;;;;;;;;;;13.90;99.90;;;;;;5092994;28;19908;-76
2022/10/31 04:58:49;;;;;;;;;;;13.90;99.90;;;;;;5092363;28;19912;-76
2022/10/31 05:01:15;;;;;;;;;;;13.90;99.90;;;;;;5092749;28;19908;-76
2022/10/31 05:03:41;;;;;;;;;;;13.90;99.90;;;;;;5092672;28;19908;-77
2022/10/31 05:06:06;;;;;;;;;;;13.90;99.90;;;;;;5092340;28;19912;-77
2022/10/31 05:08:32;;;;;;;;;;;13.90;99.90;;;;;;5093049;28;19916;-77
2022/10/31 05:11:01;;;;;;;;;;;13.90;99.90;;;;;;5091225;28;19973;-77
2022/10/31 05:13:27;;;;;;;;;;;13.90;99.90;;;;;;5092735;28;19959;-76
2022/10/31 05:15:53;;;;;;;;;;;13.90;99.90;;;;;;5092051;28;19939;-76
2022/10/31 05:18:18;;;;;;;;;;;13.90;99.90;;;;;;5094593;28;19909;-75
2022/10/31 05:20:44;;;;;;;;;;;13.90;99.90;;;;;;5096236;28;19912;-76
2022/10/31 05:23:09;;;;;;;;;;;13.90;99.90;;;;;;5096873;28;20265;-76
2022/10/31 05:25:35;;;;;;;;;;;13.90;99.90;;;;;;5096372;28;19912;-76
2022/10/31 05:28:00;;;;;;;;;;;13.90;99.90;;;;;;5096274;28;19943;-76
2022/10/31 05:30:30;;;;;;;;;;;14.00;99.90;;;;;;5097055;28;19923;-77
2022/10/31 05:32:56;;;;;;;;;;;14.00;99.90;;;;;;5096495;28;19908;-76
2022/10/31 05:35:23;;;;;;;;;;;14.00;99.90;;;;;;5096699;28;19919;-76
2022/10/31 05:37:48;;;;;;;;;;;14.00;99.90;;;;;;5096205;28;20277;-76
2022/10/31 05:40:15;;;;;;;;;;;14.00;99.90;;;;;;5096628;28;19908;-76
2022/10/31 05:42:42;;;;;;;;;;;14.00;99.90;;;;;;5096503;28;19908;-76
2022/10/31 05:45:08;;;;;;;;;;;14.00;99.90;;;;;;5095956;28;20025;-76
2022/10/31 05:47:34;;;;;;;;;;;14.00;99.90;;;;;;5096388;28;20019;-76
2022/10/31 05:49:59;;;;;;;;;;;14.00;99.90;;;;;;5094520;28;19995;-77
2022/10/31 05:52:25;;;;;;;;;;;14.00;99.90;;;;;;5096018;28;19908;-76
2022/10/31 05:54:50;;;;;;;;;;;14.00;99.90;;;;;;5095894;28;19954;-77
2022/10/31 05:57:16;;;;;;;;;;;14.00;99.90;;;;;;5096352;28;20338;-76
2022/10/31 05:59:42;;;;;;;;;;;14.00;99.90;;;;;;5095982;28;20284;-77
2022/10/31 06:02:07;;;;;;;;;;;14.00;99.90;;;;;;5095753;28;19919;-77
2022/10/31 06:04:33;;;;;;;;;;;13.90;99.90;;;;;;5096317;28;19912;-77
2022/10/31 06:06:58;;;;;;;;;;;14.00;99.90;;;;;;5094349;28;20365;-77
2022/10/31 06:09:24;;;;;;;;;;;14.00;99.90;;;;;;5096119;28;19908;-77
2022/10/31 06:11:49;;;;;;;;;;;14.10;99.90;;;;;;5095465;28;20341;-78
2022/10/31 06:14:15;;;;;;;;;;;14.20;99.90;;;;;;5096134;28;20312;-77
2022/10/31 06:16:40;;;;;;;;;;;14.20;99.90;;;;;;5095973;28;19915;-77
2022/10/31 06:19:06;;;;;;;;;;;14.20;99.90;;;;;;5095307;28;20058;-77
2022/10/31 06:21:31;;;;;;;;;;;14.20;99.90;;;;;;5095884;28;20045;-77
2022/10/31 06:23:57;;;;;;;;;;;14.20;99.90;;;;;;5094861;28;19908;-77
2022/10/31 06:26:23;;;;;;;;;;;14.20;99.90;;;;;;5096055;28;19916;-77
2022/10/31 06:28:48;;;;;;;;;;;14.20;99.90;;;;;;5094708;28;19908;-77
2022/10/31 06:31:14;;;;;;;;;;;14.20;99.90;;;;;;5094888;28;19914;-77
2022/10/31 06:33:42;;;;;;;;;;;14.10;99.90;;;;;;5095305;28;20403;-76
2022/10/31 06:36:08;;;;;;;;;;;14.10;99.90;;;;;;5095146;28;19904;-76
2022/10/31 06:38:34;;;;;;;;;;;14.00;99.90;;;;;;5095186;28;19955;-76
2022/10/31 06:41:04;;;;;;;;;;;14.00;99.90;;;;;;5094670;28;19947;-76
2022/10/31 06:43:29;;;;;;;;;;;14.00;99.90;;;;;;5095143;28;19908;-76
2022/10/31 06:45:55;;;;;;;;;;;14.00;99.90;;;;;;5094548;28;19974;-76
2022/10/31 06:48:21;;;;;;;;;;;14.00;99.90;;;;;;5095285;28;20385;-77
2022/10/31 06:50:46;;;;;;;;;;;14.00;99.90;;;;;;5095281;28;19908;-77
2022/10/31 06:53:13;;;;;;;;;;;14.00;99.90;;;;;;5094367;28;19912;-77
2022/10/31 06:55:39;;;;;;;;;;;14.00;99.90;;;;;;5094882;28;20350;-77
2022/10/31 06:58:05;;;;;;;;;;;14.00;99.90;;;;;;5094605;28;19943;-77
2022/10/31 07:00:31;;;;;;;;;;;14.00;99.90;;;;;;5095089;28;19990;-77
2022/10/31 07:02:57;;;;;;;;;;;14.00;99.90;;;;;;5093082;28;19908;-76
2022/10/31 07:05:23;;;;;;;;;;;14.00;99.90;;;;;;5094831;28;19916;-76
2022/10/31 07:07:56;;;;;;;;;;;14.00;99.90;;;;;;5094910;28;19908;-76
2022/10/31 07:10:23;;;;;;;;;;;14.00;99.90;;;;;;5094930;28;19973;-76
2022/10/31 07:12:48;;;;;;;;;;;13.90;99.90;;;;;;5094543;28;20041;-76
2022/10/31 07:15:14;;;;;;;;;;;13.90;99.90;;;;;;5093011;28;20007;-76
2022/10/31 07:17:39;;;;;;;;;;;13.90;99.90;;;;;;5094826;28;19907;-77
2022/10/31 07:20:05;;;;;;;;;;;13.90;99.90;;;;;;5092885;28;19937;-77
2022/10/31 07:22:34;;;;;;;;;;;14.00;99.90;;;;;;5094546;28;19908;-76
2022/10/31 07:25:00;;;;;;;;;;;14.10;99.90;;;;;;5093991;28;20043;-77
2022/10/31 07:27:25;;;;;;;;;;;14.10;99.90;;;;;;5094740;28;20002;-77
2022/10/31 07:29:51;;;;;;;;;;;14.10;99.90;;;;;;5092903;28;19917;-77
2022/10/31 07:32:17;;;;;;;;;;;14.10;99.90;;;;;;5094426;28;19908;-77
2022/10/31 07:34:42;;;;;;;;;;;14.10;99.90;;;;;;5094105;28;19908;-76
2022/10/31 07:37:08;;;;;;;;;;;14.10;99.90;;;;;;5092298;28;20047;-76
2022/10/31 07:39:33;;;;;;;;;;;14.00;99.90;;;;;;5094519;28;19915;-77
2022/10/31 07:41:59;;;;;;;;;;;14.00;99.90;;;;;;5093810;28;20392;-76
2022/10/31 07:44:24;;;;;;;;;;;14.00;99.90;;;;;;5093905;28;19915;-76
2022/10/31 07:46:50;;;;;;;;;;;14.00;99.90;;;;;;5094189;28;19973;-75
2022/10/31 07:49:16;;;;;;;;;;;14.00;99.90;;;;;;5093198;28;19961;-75
2022/10/31 07:51:41;;;;;;;;;;;14.10;99.90;;;;;;5093848;28;20010;-75
2022/10/31 07:54:07;;;;;;;;;;;14.20;99.90;;;;;;5093245;28;20346;-76
2022/10/31 07:56:32;;;;;;;;;;;14.20;99.90;;;;;;5093967;28;19977;-76
2022/10/31 07:58:58;;;;;;;;;;;14.20;99.90;;;;;;5093610;28;19942;-76
2022/10/31 08:01:24;;;;;;;;;;;14.20;99.90;;;;;;5093782;28;20357;-75
2022/10/31 08:03:49;;;;;;;;;;;14.30;99.90;;;;;;5092529;28;19908;-75
2022/10/31 08:06:15;;;;;;;;;;;14.40;99.90;;;;;;5091779;28;19912;-76
2022/10/31 08:08:40;;;;;;;;;;;14.50;99.90;;;;;;5093962;28;19964;-76
2022/10/31 08:11:06;;;;;;;;;;;14.50;99.90;;;;;;5092733;28;19961;-75
2022/10/31 08:13:31;;;;;;;;;;;14.50;99.90;;;;;;5093577;28;19912;-76
2022/10/31 08:16:03;;;;;;;;;;;14.50;99.90;;;;;;5093066;28;20311;-76
2022/10/31 08:18:29;;;;;;;;;;;14.50;99.90;;;;;;5092832;28;19908;-77
2022/10/31 08:20:54;;;;;;;;;;;14.50;99.90;;;;;;5092921;28;19908;-76
2022/10/31 08:23:20;;;;;;;;;;;14.50;99.90;;;;;;5093302;28;19951;-77
2022/10/31 08:25:47;;;;;;;;;;;14.60;99.90;;;;;;5093184;28;20424;-77
2022/10/31 08:28:13;;;;;;;;;;;14.70;99.90;;;;;;5092874;28;20335;-76
2022/10/31 08:30:39;;;;;;;;;;;14.70;99.90;;;;;;5093581;28;19908;-75
2022/10/31 08:33:06;;;;;;;;;;;14.80;99.90;;;;;;5092875;28;20299;-76
2022/10/31 08:35:32;;;;;;;;;;;14.90;99.90;;;;;;5093224;28;20346;-76
2022/10/31 08:37:58;;;;;;;;;;;14.90;99.90;;;;;;5092765;28;20250;-76
2022/10/31 08:40:24;;;;;;;;;;;14.90;99.90;;;;;;5092699;28;19922;-77
2022/10/31 08:43:00;;;;;;;;;;;14.90;99.90;;;;;;5093263;28;19908;-76
2022/10/31 08:45:26;;;;;;;;;;;14.90;99.90;;;;;;5092963;28;19965;-76
2022/10/31 08:47:52;;;;;;;;;;;14.90;99.90;;;;;;5093396;28;19916;-77
2022/10/31 08:50:18;;;;;;;;;;;14.80;99.90;;;;;;5092985;28;20523;-77
2022/10/31 08:52:43;;;;;;;;;;;14.80;99.90;;;;;;5091598;28;19908;-76
2022/10/31 08:55:09;;;;;;;;;;;14.80;99.90;;;;;;5092582;28;19908;-77
2022/10/31 08:57:34;;;;;;;;;;;15.00;99.90;;;;;;5093396;28;19908;-76
2022/10/31 09:00:00;;;;;;;;;;;15.10;99.90;;;;;;5092571;28;19995;-76
2022/10/31 09:02:25;;;;;;;;;;;15.00;99.90;;;;;;5093329;28;19915;-76
2022/10/31 09:04:51;;;;;;;;;;;15.10;99.90;;;;;;5092646;28;20012;-76
2022/10/31 09:07:17;;;;;;;;;;;15.10;99.90;;;;;;5092394;28;20006;-76
2022/10/31 09:09:42;;;;;;;;;;;15.10;99.90;;;;;;5093036;28;19919;-77
2022/10/31 09:12:08;;;;;;;;;;;15.10;99.90;;;;;;5092213;28;19961;-77
2022/10/31 09:14:33;;;;;;;;;;;15.00;99.90;;;;;;5092664;28;19947;-77
2022/10/31 09:16:59;;;;;;;;;;;15.00;99.90;;;;;;5090812;28;19908;-76
2022/10/31 09:19:24;;;;;;;;;;;14.90;99.90;;;;;;5092478;28;20002;-75
2022/10/31 09:21:53;;;;;;;;;;;14.80;99.90;;;;;;5092915;28;20346;-74
2022/10/31 09:24:19;;;;;;;;;;;14.80;99.90;;;;;;5092344;28;19912;-75
2022/10/31 09:26:45;;;;;;;;;;;14.80;99.90;;;;;;5094778;28;19919;-75
2022/10/31 09:29:10;;;;;;;;;;;14.70;99.90;;;;;;5093248;28;19966;-77
2022/10/31 09:31:36;;;;;;;;;;;14.70;99.90;;;;;;5092519;28;19974;-75
2022/10/31 09:34:01;;;;;;;;;;;14.70;99.90;;;;;;5092322;28;19912;-75
2022/10/31 09:36:27;;;;;;;;;;;14.70;99.90;;;;;;5092266;28;19920;-76
2022/10/31 09:38:53;;;;;;;;;;;14.70;99.90;;;;;;5092656;28;20361;-76
2022/10/31 09:41:21;;;;;;;;;;;14.70;99.90;;;;;;5092117;28;20833;-76
2022/10/31 09:43:47;;;;;;;;;;;14.60;99.90;;;;;;5090967;28;19914;-76
2022/10/31 09:46:18;;;;;;;;;;;14.70;99.90;;;;;;5090854;28;20292;-76
2022/10/31 09:48:56;;;;;;;;;;;14.60;99.90;;;;;;5092098;28;20364;-76
2022/10/31 09:51:25;;;;;;;;;;;14.60;99.90;;;;;;5091749;28;19939;-76
2022/10/31 09:54:10;;;;;;;;;;;14.60;99.90;;;;;;5091794;28;19908;-76
2022/10/31 09:56:36;;;;;;;;;;;14.60;99.90;;;;;;5091981;28;19908;-76
2022/10/31 09:59:03;;;;;;;;;;;14.70;99.90;;;;;;5091985;28;19919;-76
2022/10/31 10:01:28;;;;;;;;;;;14.70;99.90;;;;;;5090365;28;19936;-76
2022/10/31 10:03:56;;;;;;;;;;;14.80;99.90;;;;;;5092887;28;19915;-76
2022/10/31 10:06:27;;;;;;;;;;;14.90;99.90;;;;;;5094433;28;20011;-75
2022/10/31 10:08:52;;;;;;;;;;;14.90;99.90;;;;;;5095005;28;19916;-76
2022/10/31 10:11:32;;;;;;;;;;;15.00;99.90;;;;;;5076530;28;19916;-75
2022/10/31 10:14:03;;;;;;;;;;;15.10;99.90;;;;;;5094432;28;19908;-76
2022/10/31 10:16:51;;;;;;;;;;;15.20;99.90;;;;;;5095065;28;19981;-75
2022/10/31 10:19:20;;;;;;;;;;;15.30;99.90;;;;;;5094740;28;19948;-75
2022/10/31 10:21:51;;;;;;;;;;;15.40;99.90;;;;;;5094926;28;19916;-75
2022/10/31 10:24:28;;;;;;;;;;;15.40;99.90;;;;;;5094631;28;19908;-75
2022/10/31 10:26:59;;;;;;;;;;;15.40;99.90;;;;;;5095280;28;19938;-76
2022/10/31 10:29:34;;;;;;;;;;;15.50;99.90;;;;;;5094583;28;20376;-76
2022/10/31 10:32:01;;;;;;;;;;;15.50;99.90;;;;;;5094911;28;20384;-75
2022/10/31 10:34:30;;;;;;;;;;;15.50;99.90;;;;;;5094676;28;19998;-76
2022/10/31 10:37:04;;;;;;;;;;;15.60;99.90;;;;;;5094546;28;19918;-76
2022/10/31 10:39:32;;;;;;;;;;;15.60;99.90;;;;;;5093737;28;19999;-75
2022/10/31 10:47:41;;;;;;;;;;;15.80;99.90;;;;;;5094947;28;19931;-75
2022/10/31 10:50:27;;;;;;;;;;;15.90;99.90;;;;;;5094087;28;20003;-75
2022/10/31 10:53:20;;;;;;;;;;;16.00;99.90;;;;;;5093975;28;20272;-75
2022/10/31 10:56:12;;;;;;;;;;;16.10;99.90;;;;;;5094659;28;19908;-75
2022/10/31 10:58:39;;;;;;;;;;;16.10;99.90;;;;;;5092530;28;20427;-75
2022/10/31 11:01:10;;;;;;;;;;;16.20;99.90;;;;;;5094144;28;20303;-75
2022/10/31 11:03:35;;;;;;;;;;;16.20;99.90;;;;;;5094611;28;19946;-75
2022/10/31 11:06:01;;;;;;;;;;;16.30;99.90;;;;;;5093981;28;19967;-75
2022/10/31 11:08:32;;;;;;;;;;;16.30;99.90;;;;;;5094263;28;19924;-76
2022/10/31 11:11:00;;;;;;;;;;;16.40;99.90;;;;;;5094319;28;19908;-76
2022/10/31 11:13:27;;;;;;;;;;;16.50;99.90;;;;;;5094391;28;19908;-76
2022/10/31 11:15:54;;;;;;;;;;;16.50;99.90;;;;;;5093914;28;20388;-75
2022/10/31 11:18:25;;;;;;;;;;;16.50;99.90;;;;;;5092410;28;19969;-75
2022/10/31 11:20:52;;;;;;;;;;;16.50;99.90;;;;;;5093891;28;20010;-75
2022/10/31 11:23:18;;;;;;;;;;;16.50;99.90;;;;;;5093173;28;20384;-75
2022/10/31 11:25:51;;;;;;;;;;;16.50;99.90;;;;;;5094133;28;19911;-75
2022/10/31 11:28:17;;;;;;;;;;;16.50;99.90;;;;;;5093128;28;20523;-75
2022/10/31 11:30:47;;;;;;;;;;;16.50;99.90;;;;;;5093685;28;19955;-75
2022/10/31 11:33:32;;;;;;;;;;;16.40;99.90;;;;;;5093248;28;20015;-75
2022/10/31 11:35:58;;;;;;;;;;;16.40;99.90;;;;;;5093446;28;19916;-75
2022/10/31 11:38:26;;;;;;;;;;;16.10;99.90;;;;;;5093050;28;19947;-75
2022/10/31 11:40:53;;;;;;;;;;;15.90;99.90;;;;;;5092899;28;19965;-75
2022/10/31 11:43:18;;;;;;;;;;;15.50;99.90;;;;;;5089958;28;19918;-75
2022/10/31 11:45:44;;;;;;;;;;;15.30;99.90;;;;;;5093526;28;19919;-75
2022/10/31 11:48:15;;;;;;;;;;;15.20;99.90;;;;;;5092719;28;19908;-75
2022/10/31 11:50:42;;;;;;;;;;;15.10;99.90;;;;;;5093873;28;19950;-75
2022/10/31 11:53:42;;;;;;;;;;;14.80;99.90;;;;;;5093042;28;19912;-75
2022/10/31 11:56:15;;;;;;;;;;;14.80;99.90;;;;;;5050266;28;19909;-76
2022/10/31 11:58:41;;;;;;;;;;;14.70;99.90;;;;;;5085955;28;20316;-76
2022/10/31 12:01:19;;;;;;;;;;;14.70;99.90;;;;;;5093021;28;19908;-76
2022/10/31 12:03:58;;;;;;;;;;;14.70;99.90;;;;;;5093632;28;19953;-75
2022/10/31 12:06:29;;;;;;;;;;;14.70;99.90;;;;;;5092624;28;19912;-75
2022/10/31 12:08:54;;;;;;;;;;;14.80;99.90;;;;;;5091786;28;19937;-74
2022/10/31 12:11:43;;;;;;;;;;;14.80;99.90;;;;;;5091202;28;20377;-75
2022/10/31 12:14:18;;;;;;;;;;;14.90;99.90;;;;;;5084412;28;19912;-75
2022/10/31 12:16:43;;;;;;;;;;;14.90;99.90;;;;;;5091655;28;19912;-75
2022/10/31 12:19:15;;;;;;;;;;;15.00;99.90;;;;;;5090991;28;20403;-76
2022/10/31 12:21:40;;;;;;;;;;;15.00;99.90;;;;;;5091540;28;19916;-76
2022/10/31 12:24:15;;;;;;;;;;;15.10;99.90;;;;;;5091120;28;20349;-76
2022/10/31 12:26:59;;;;;;;;;;;15.10;99.90;;;;;;5091622;28;20598;-73
2022/10/31 12:29:41;;;;;;;;;;;15.20;99.90;;;;;;5091098;28;19916;-75
2022/10/31 12:32:09;;;;;;;;;;;15.20;99.90;;;;;;5088440;28;19908;-75
2022/10/31 12:34:47;;;;;;;;;;;15.20;99.90;;;;;;5091354;28;19908;-75
2022/10/31 12:37:39;;;;;;;;;;;15.30;99.90;;;;;;5089207;28;19909;-75
2022/10/31 12:40:25;;;;;;;;;;;15.40;99.90;;;;;;5081669;28;19924;-74
2022/10/31 12:43:23;;;;;;;;;;;15.40;99.90;;;;;;5088675;28;19912;-75
2022/10/31 12:45:54;;;;;;;;;;;15.40;99.90;;;;;;5067479;28;20340;-76
2022/10/31 12:48:24;;;;;;;;;;;15.40;99.90;;;;;;5089829;28;20490;-74
2022/10/31 12:51:02;;;;;;;;;;;15.40;99.90;;;;;;5090784;28;20335;-75
2022/10/31 12:53:42;;;;;;;;;;;15.40;99.90;;;;;;5087892;28;19958;-75
2022/10/31 12:56:36;;;;;;;;;;;15.50;99.90;;;;;;5088070;28;20003;-74
2022/10/31 12:59:20;;;;;;;;;;;15.50;99.90;;;;;;5088807;28;19912;-75
2022/10/31 13:01:53;;;;;;;;;;;15.50;99.90;;;;;;5090386;28;19908;-74
2022/10/31 13:04:51;;;;;;;;;;;15.60;99.90;;;;;;5092017;28;20384;-76
2022/10/31 13:07:23;;;;;;;;;;;15.70;99.90;;;;;;5067906;28;19916;-77
2022/10/31 13:09:57;;;;;;;;;;;15.70;99.90;;;;;;5091346;28;19981;-76
2022/10/31 13:12:24;;;;;;;;;;;15.80;99.90;;;;;;5090608;28;20547;-74
2022/10/31 13:14:49;;;;;;;;;;;15.80;99.90;;;;;;5091074;28;20296;-76
2022/10/31 13:17:24;;;;;;;;;;;15.80;99.90;;;;;;5090474;28;19908;-75
2022/10/31 13:19:50;;;;;;;;;;;15.90;99.90;;;;;;5088870;28;19912;-75
2022/10/31 13:22:17;;;;;;;;;;;15.80;99.90;;;;;;5089969;28;19920;-75
2022/10/31 13:24:46;;;;;;;;;;;15.70;99.90;;;;;;5090440;28;19916;-76
2022/10/31 13:27:23;;;;;;;;;;;15.70;99.90;;;;;;5090721;28;19968;-76
2022/10/31 13:30:00;;;;;;;;;;;15.60;99.90;;;;;;5092140;28;20293;-76
2022/10/31 13:32:37;;;;;;;;;;;15.60;99.90;;;;;;5091570;28;19919;-75
2022/10/31 13:35:03;;;;;;;;;;;15.50;99.90;;;;;;5091755;28;19982;-75
2022/10/31 13:37:34;;;;;;;;;;;15.50;99.90;;;;;;5090892;28;19961;-75
2022/10/31 13:40:02;;;;;;;;;;;15.50;99.90;;;;;;5095145;28;19908;-75
2022/10/31 13:42:45;;;;;;;;;;;15.50;99.90;;;;;;5095564;28;19908;-76
2022/10/31 13:45:16;;;;;;;;;;;15.50;99.90;;;;;;5096901;28;19908;-75
2022/10/31 13:47:42;;;;;;;;;;;15.50;99.90;;;;;;5096490;28;19990;-75
2022/10/31 13:50:22;;;;;;;;;;;15.50;99.90;;;;;;5095789;28;19915;-77
2022/10/31 13:52:47;;;;;;;;;;;15.40;99.90;;;;;;5094696;28;19908;-75
2022/10/31 13:55:32;;;;;;;;;;;15.40;99.90;;;;;;5094519;28;19908;-75
2022/10/31 13:57:58;;;;;;;;;;;15.40;99.90;;;;;;5092629;28;20344;-76
2022/10/31 14:00:25;;;;;;;;;;;15.40;99.90;;;;;;5093993;28;19932;-76
2022/10/31 14:02:56;;;;;;;;;;;15.40;99.90;;;;;;5094493;28;19909;-76
2022/10/31 14:05:27;;;;;;;;;;;15.40;99.90;;;;;;5094087;28;19909;-75
2022/10/31 14:07:54;;;;;;;;;;;15.40;99.90;;;;;;5094361;28;19912;-75
2022/10/31 14:10:22;;;;;;;;;;;15.40;99.90;;;;;;5094172;28;19916;-75
2022/10/31 14:12:48;;;;;;;;;;;15.40;99.90;;;;;;5094641;28;19916;-75
2022/10/31 14:15:16;;;;;;;;;;;15.40;99.90;;;;;;5094106;28;20003;-75
2022/10/31 14:17:53;;;;;;;;;;;15.40;99.90;;;;;;5094791;28;19920;-76
2022/10/31 14:20:19;;;;;;;;;;;15.40;99.90;;;;;;5093900;28;20010;-75
2022/10/31 14:22:45;;;;;;;;;;;15.40;99.90;;;;;;5091528;28;19994;-75
2022/10/31 14:25:31;;;;;;;;;;;15.40;99.90;;;;;;5093722;28;19913;-76
2022/10/31 14:27:56;;;;;;;;;;;15.40;99.90;;;;;;5094052;28;19908;-76
2022/10/31 14:30:24;;;;;;;;;;;15.40;99.90;;;;;;5094674;28;19923;-76